Time;durP1;ratioP1;P1;durP2;ratioP2;P2;SDS_P1;SDS_P2;PMS_P1;PMS_P2;Temp;Humidity;BMP_temperature;BMP_pressure;BME280_temperature;BME280_humidity;BME280_pressure;Samples;Min_cycle;Max_cycle;Signal;HPM_P1;HPM_P2
2022/04/30 00:01:22;;;;;;;14.27;8.75;;;7.00;99.90;;;;;;5032531;28;20046;-72
2022/04/30 00:03:47;;;;;;;15.55;9.32;;;7.00;99.90;;;;;;5031371;28;20124;-72
2022/04/30 00:06:13;;;;;;;14.55;9.38;;;6.90;99.90;;;;;;5032846;28;20049;-72
2022/04/30 00:08:38;;;;;;;13.90;9.18;;;6.80;99.90;;;;;;5032869;28;20496;-72
2022/04/30 00:11:07;;;;;;;14.30;8.40;;;6.90;99.90;;;;;;5032339;28;20041;-72
2022/04/30 00:13:33;;;;;;;14.70;9.20;;;6.90;99.90;;;;;;5031548;28;20052;-72
2022/04/30 00:15:59;;;;;;;11.43;8.77;;;6.90;99.90;;;;;;5031629;28;20037;-72
2022/04/30 00:18:25;;;;;;;22.27;10.20;;;6.90;99.90;;;;;;5032590;28;20053;-72
2022/04/30 00:20:51;;;;;;;15.98;9.40;;;6.90;99.90;;;;;;5032237;28;20120;-71
2022/04/30 00:23:19;;;;;;;14.63;9.15;;;6.90;99.90;;;;;;5032417;28;20645;-72
2022/04/30 00:25:50;;;;;;;15.13;9.93;;;6.90;99.90;;;;;;5031290;28;20045;-72
2022/04/30 00:28:21;;;;;;;15.32;9.85;;;6.90;99.90;;;;;;5032444;28;20096;-72
2022/04/30 00:30:48;;;;;;;17.65;10.25;;;6.90;99.90;;;;;;5032000;28;20056;-72
2022/04/30 00:33:13;;;;;;;16.27;9.57;;;6.90;99.90;;;;;;5032358;28;20450;-72
2022/04/30 00:35:40;;;;;;;16.73;9.38;;;6.90;99.90;;;;;;5032368;28;20037;-72
2022/04/30 00:38:06;;;;;;;17.70;8.82;;;6.90;99.90;;;;;;5031259;28;20045;-72
2022/04/30 00:40:32;;;;;;;17.67;9.45;;;6.80;99.90;;;;;;5030907;28;20079;-72
2022/04/30 00:42:58;;;;;;;16.58;9.93;;;6.80;99.90;;;;;;5031115;28;20077;-72
2022/04/30 00:45:24;;;;;;;14.27;9.57;;;6.70;99.90;;;;;;5030809;28;20091;-72
2022/04/30 00:47:50;;;;;;;15.63;9.23;;;6.60;99.90;;;;;;5031140;28;20395;-72
2022/04/30 00:50:16;;;;;;;14.30;9.48;;;6.50;99.90;;;;;;5030381;28;20045;-72
2022/04/30 00:52:47;;;;;;;12.15;8.88;;;6.40;99.90;;;;;;5030705;28;20524;-72
2022/04/30 00:55:13;;;;;;;13.57;9.60;;;6.30;99.90;;;;;;5032016;28;20041;-72
2022/04/30 00:57:43;;;;;;;12.60;9.60;;;6.30;99.90;;;;;;5030676;28;20037;-72
2022/04/30 01:00:10;;;;;;;13.52;9.60;;;6.20;99.90;;;;;;5030668;28;20375;-72
2022/04/30 01:02:36;;;;;;;15.88;9.43;;;6.20;99.90;;;;;;5030661;28;20125;-72
2022/04/30 01:05:02;;;;;;;16.27;9.90;;;6.10;99.90;;;;;;5030766;28;20503;-72
2022/04/30 01:07:30;;;;;;;12.98;9.20;;;6.10;99.90;;;;;;5030922;28;20517;-72
2022/04/30 01:09:56;;;;;;;12.68;9.15;;;6.00;99.90;;;;;;5030104;28;20050;-72
2022/04/30 01:12:23;;;;;;;17.77;9.73;;;6.00;99.90;;;;;;5030411;28;20440;-72
2022/04/30 01:14:51;;;;;;;19.65;9.55;;;6.00;99.90;;;;;;5031853;28;20129;-72
2022/04/30 01:17:17;;;;;;;14.27;9.73;;;5.90;99.90;;;;;;5030782;28;20491;-72
2022/04/30 01:19:43;;;;;;;12.75;9.75;;;5.80;99.90;;;;;;5030296;28;20088;-72
2022/04/30 01:22:30;;;;;;;17.13;10.13;;;5.80;99.90;;;;;;5031797;28;20041;-72
2022/04/30 01:24:58;;;;;;;16.58;10.13;;;5.80;99.90;;;;;;5030520;28;20095;-72
2022/04/30 01:27:26;;;;;;;14.95;9.70;;;5.70;99.90;;;;;;5031679;28;20481;-72
2022/04/30 01:29:53;;;;;;;17.75;9.93;;;5.70;99.90;;;;;;5030222;28;20495;-72
2022/04/30 01:37:58;;;;;;;14.07;10.05;;;5.60;99.90;;;;;;5009986;28;20468;-72
2022/04/30 01:40:23;;;;;;;13.63;9.50;;;5.60;99.90;;;;;;5020240;28;20422;-72
2022/04/30 01:42:49;;;;;;;13.70;9.43;;;5.60;99.90;;;;;;5024198;28;20045;-72
2022/04/30 01:45:18;;;;;;;12.63;9.27;;;5.50;99.90;;;;;;5020091;28;20068;-71
2022/04/30 01:47:45;;;;;;;14.50;8.77;;;5.50;99.90;;;;;;5021616;28;20060;-71
2022/04/30 01:50:12;;;;;;;16.02;10.00;;;5.40;99.90;;;;;;5019499;28;20539;-72
2022/04/30 01:52:39;;;;;;;14.88;9.82;;;5.40;99.90;;;;;;5023261;28;20476;-73
2022/04/30 01:55:05;;;;;;;17.17;10.45;;;5.30;99.90;;;;;;5021614;28;20057;-71
2022/04/30 01:57:31;;;;;;;13.85;10.05;;;5.30;99.90;;;;;;5025795;28;20079;-71
2022/04/30 01:59:59;;;;;;;15.70;10.25;;;5.30;99.90;;;;;;5033578;28;20041;-71
2022/04/30 02:02:34;;;;;;;15.27;10.20;;;5.20;99.90;;;;;;5030029;28;20041;-71
2022/04/30 02:05:03;;;;;;;16.17;10.45;;;5.10;99.90;;;;;;5023702;28;20046;-70
2022/04/30 02:07:34;;;;;;;13.82;9.85;;;5.10;99.90;;;;;;5018778;28;20048;-71
2022/04/30 02:10:01;;;;;;;13.85;10.45;;;5.10;99.90;;;;;;5010087;28;20408;-71
2022/04/30 02:12:33;;;;;;;15.65;10.23;;;5.10;99.90;;;;;;5011663;28;20042;-70
2022/04/30 02:14:59;;;;;;;15.15;10.02;;;5.00;99.90;;;;;;5014252;28;20048;-70
2022/04/30 02:17:28;;;;;;;11.82;10.23;;;5.00;99.90;;;;;;5027380;28;20091;-70
2022/04/30 02:22:40;;;;;;;13.93;9.98;;;4.90;99.90;;;;;;5011559;28;20069;-71
2022/04/30 02:25:09;;;;;;;13.65;10.15;;;4.90;99.90;;;;;;5011146;28;20037;-71
2022/04/30 02:27:39;;;;;;;14.73;9.85;;;4.90;99.90;;;;;;5014858;28;20046;-70
2022/04/30 02:30:07;;;;;;;11.88;9.57;;;4.80;99.90;;;;;;5013318;28;20069;-70
2022/04/30 02:32:44;;;;;;;14.13;9.95;;;4.80;99.90;;;;;;5013850;28;20463;-70
2022/04/30 02:35:10;;;;;;;16.95;10.65;;;4.80;99.90;;;;;;5013743;28;20046;-71
2022/04/30 02:37:36;;;;;;;14.63;10.43;;;4.80;99.90;;;;;;5013527;28;20033;-71
2022/04/30 02:40:06;;;;;;;17.50;10.25;;;4.80;99.90;;;;;;5002629;28;20041;-71
2022/04/30 02:42:32;;;;;;;15.20;9.52;;;4.80;99.90;;;;;;5033212;28;20041;-70
2022/04/30 02:44:57;;;;;;;15.10;10.10;;;4.80;99.90;;;;;;5024735;28;20048;-71
2022/04/30 02:47:23;;;;;;;15.93;9.90;;;4.80;99.90;;;;;;5033386;28;20045;-71
2022/04/30 02:49:49;;;;;;;15.45;10.15;;;4.80;99.90;;;;;;5032544;28;20085;-70
2022/04/30 02:52:15;;;;;;;14.73;10.32;;;4.80;99.90;;;;;;5033081;28;20052;-70
2022/04/30 02:54:40;;;;;;;16.63;10.70;;;4.80;99.90;;;;;;5034091;28;20048;-71
2022/04/30 02:57:06;;;;;;;16.67;10.85;;;4.80;99.90;;;;;;5033061;28;20565;-71
2022/04/30 03:02:16;;;;;;;15.40;10.85;;;4.90;99.90;;;;;;5032917;28;20071;-72
2022/04/30 03:04:41;;;;;;;16.45;10.18;;;4.90;99.90;;;;;;5033614;28;20045;-72
2022/04/30 03:07:11;;;;;;;13.80;10.65;;;4.90;99.90;;;;;;5032576;28;20045;-72
2022/04/30 03:09:39;;;;;;;15.10;10.15;;;4.90;99.90;;;;;;5032429;28;20558;-72
2022/04/30 03:12:08;;;;;;;17.20;10.32;;;4.90;99.90;;;;;;5032605;28;20045;-72
2022/04/30 03:14:34;;;;;;;15.45;9.75;;;4.90;99.90;;;;;;5033018;28;20030;-72
2022/04/30 03:22:29;;;;;;;18.17;10.30;;;5.00;99.90;;;;;;5032320;28;20510;-72
2022/04/30 03:24:55;;;;;;;13.80;10.35;;;5.00;99.90;;;;;;5032352;28;20041;-72
2022/04/30 03:27:20;;;;;;;18.55;10.80;;;5.00;99.90;;;;;;5033477;28;20037;-72
2022/04/30 03:29:46;;;;;;;17.95;10.85;;;5.00;99.90;;;;;;5031890;28;20041;-72
2022/04/30 03:32:13;;;;;;;12.90;9.90;;;5.00;99.90;;;;;;5032352;28;20638;-72
2022/04/30 03:34:38;;;;;;;10.40;7.53;;;5.00;99.90;;;;;;5032400;28;20496;-72
2022/04/30 03:37:05;;;;;;;12.88;7.55;;;5.00;99.90;;;;;;5031588;28;20056;-72
2022/04/30 03:39:30;;;;;;;10.48;7.90;;;5.00;99.90;;;;;;5031861;28;20084;-72
2022/04/30 03:41:56;;;;;;;15.55;8.57;;;4.90;99.90;;;;;;5032179;28;20500;-72
2022/04/30 03:44:23;;;;;;;12.85;9.32;;;4.90;99.90;;;;;;5031990;28;20483;-72
2022/04/30 03:46:49;;;;;;;14.25;10.02;;;4.90;99.90;;;;;;5033240;28;20045;-72
2022/04/30 03:49:15;;;;;;;16.50;10.35;;;4.90;99.90;;;;;;5033273;28;20392;-72
2022/04/30 03:51:40;;;;;;;16.95;10.30;;;4.90;99.90;;;;;;5031707;28;20090;-72
2022/04/30 03:54:06;;;;;;;16.20;11.07;;;4.90;99.90;;;;;;5033259;28;20041;-72
2022/04/30 03:56:32;;;;;;;17.15;10.88;;;4.90;99.90;;;;;;5031987;28;20038;-72
2022/04/30 03:58:58;;;;;;;17.35;10.95;;;4.90;99.90;;;;;;5032048;28;20033;-72
2022/04/30 04:01:24;;;;;;;15.27;11.30;;;4.90;99.90;;;;;;5031192;28;20041;-72
2022/04/30 04:03:50;;;;;;;14.18;10.60;;;4.90;99.90;;;;;;5031230;28;20124;-72
2022/04/30 04:06:17;;;;;;;15.00;10.25;;;4.90;99.90;;;;;;5031259;28;20037;-72
2022/04/30 04:08:43;;;;;;;13.63;10.23;;;4.90;99.90;;;;;;5032352;28;20041;-72
2022/04/30 04:11:13;;;;;;;18.58;11.23;;;4.90;99.90;;;;;;5030619;28;20042;-72
2022/04/30 04:19:09;;;;;;;13.15;9.77;;;4.80;99.90;;;;;;5031693;28;20081;-72
2022/04/30 04:21:34;;;;;;;12.55;9.60;;;4.80;99.90;;;;;;5031095;28;20083;-72
2022/04/30 04:26:44;;;;;;;19.38;11.20;;;4.90;99.90;;;;;;5031422;28;20446;-72
2022/04/30 04:29:10;;;;;;;17.38;11.98;;;4.90;99.90;;;;;;5031180;28;20049;-72
2022/04/30 04:31:36;;;;;;;14.98;11.18;;;4.90;99.90;;;;;;5030261;28;20056;-72
2022/04/30 04:34:02;;;;;;;17.70;11.57;;;4.90;99.90;;;;;;5032351;28;20038;-72
2022/04/30 04:36:28;;;;;;;18.95;10.75;;;4.90;99.90;;;;;;5030909;28;20480;-72
2022/04/30 04:38:53;;;;;;;18.42;11.35;;;5.00;99.90;;;;;;5031020;28;20068;-72
2022/04/30 04:41:19;;;;;;;19.65;11.07;;;4.90;99.90;;;;;;5031397;28;20511;-72
2022/04/30 04:43:45;;;;;;;16.08;10.10;;;4.90;99.90;;;;;;5028180;28;20403;-72
2022/04/30 04:46:11;;;;;;;14.75;9.88;;;4.90;99.90;;;;;;5031920;28;20403;-72
2022/04/30 04:48:37;;;;;;;11.32;10.07;;;4.90;99.90;;;;;;5029646;28;20041;-72
2022/04/30 04:51:03;;;;;;;12.35;9.60;;;5.00;99.90;;;;;;5029864;28;20042;-72
2022/04/30 04:53:29;;;;;;;14.50;10.60;;;5.00;99.90;;;;;;5031376;28;20034;-72
2022/04/30 04:55:55;;;;;;;13.43;9.98;;;5.00;99.90;;;;;;5027815;28;20462;-72
2022/04/30 04:58:20;;;;;;;13.15;9.95;;;5.10;99.90;;;;;;5025715;28;20508;-72
2022/04/30 05:00:46;;;;;;;14.48;11.32;;;5.10;99.90;;;;;;5026780;28;20060;-72
2022/04/30 05:03:13;;;;;;;20.88;11.93;;;5.20;99.90;;;;;;5023077;28;20419;-72
2022/04/30 05:05:39;;;;;;;15.80;10.93;;;5.20;99.90;;;;;;5011957;28;20042;-72
2022/04/30 05:08:04;;;;;;;15.50;11.18;;;5.30;99.90;;;;;;5010751;28;20049;-72
2022/04/30 05:10:30;;;;;;;20.73;11.48;;;5.30;99.90;;;;;;5010445;28;20046;-72
2022/04/30 05:12:56;;;;;;;16.63;10.98;;;5.40;99.90;;;;;;5010847;28;20041;-72
2022/04/30 05:15:22;;;;;;;16.95;11.43;;;5.50;99.90;;;;;;5010811;28;20045;-72
2022/04/30 05:17:47;;;;;;;14.63;10.90;;;5.50;99.90;;;;;;5010825;28;20449;-72
2022/04/30 05:20:13;;;;;;;18.75;10.77;;;5.60;99.90;;;;;;5010452;28;20048;-72
2022/04/30 05:22:39;;;;;;;18.98;11.13;;;5.70;99.90;;;;;;5012118;28;20075;-73
2022/04/30 05:25:05;;;;;;;15.20;10.70;;;5.80;99.90;;;;;;5010720;28;20041;-72
2022/04/30 05:27:30;;;;;;;17.48;11.25;;;5.80;99.90;;;;;;5010945;28;20049;-72
2022/04/30 05:29:56;;;;;;;14.82;10.90;;;5.90;99.90;;;;;;5010370;28;20558;-72
2022/04/30 05:32:22;;;;;;;15.35;11.30;;;5.90;99.90;;;;;;5011964;28;20141;-72
2022/04/30 05:34:47;;;;;;;19.95;11.40;;;6.00;99.90;;;;;;5011822;28;20041;-72
2022/04/30 05:37:13;;;;;;;13.77;10.93;;;6.00;99.90;;;;;;5023977;28;20068;-72
2022/04/30 05:39:39;;;;;;;16.50;11.35;;;6.00;99.90;;;;;;5024438;28;20046;-73
2022/04/30 05:42:05;;;;;;;14.52;11.27;;;6.00;99.90;;;;;;5023915;28;20049;-72
2022/04/30 05:44:31;;;;;;;15.13;11.50;;;6.00;99.90;;;;;;5019962;28;20045;-72
2022/04/30 05:46:56;;;;;;;16.92;11.57;;;6.10;99.90;;;;;;5011918;28;20041;-72
2022/04/30 05:49:22;;;;;;;13.43;10.32;;;6.10;99.90;;;;;;5029377;28;20045;-72
2022/04/30 05:51:49;;;;;;;15.38;10.52;;;6.20;99.90;;;;;;5028025;28;20045;-72
2022/04/30 05:54:16;;;;;;;15.00;10.77;;;6.30;99.90;;;;;;5030015;28;20098;-72
2022/04/30 05:56:41;;;;;;;14.68;11.10;;;6.30;99.90;;;;;;5031477;28;20131;-73
2022/04/30 05:59:07;;;;;;;16.15;11.40;;;6.40;99.90;;;;;;5031284;28;20088;-71
2022/04/30 06:01:32;;;;;;;15.68;11.40;;;6.50;99.90;;;;;;5033901;28;20072;-71
2022/04/30 06:03:58;;;;;;;17.05;10.68;;;6.50;99.90;;;;;;5017391;28;20533;-71
2022/04/30 06:06:24;;;;;;;22.83;11.73;;;6.60;99.90;;;;;;5033915;28;20049;-72
2022/04/30 06:08:49;;;;;;;15.68;11.05;;;6.60;99.90;;;;;;5034125;28;20128;-71
2022/04/30 06:11:15;;;;;;;15.57;10.32;;;6.70;99.90;;;;;;5033506;28;20045;-71
2022/04/30 06:13:41;;;;;;;17.17;11.15;;;6.80;99.90;;;;;;5033602;28;20041;-71
2022/04/30 06:16:06;;;;;;;15.45;10.65;;;6.90;99.90;;;;;;5035072;28;20049;-71
2022/04/30 06:18:32;;;;;;;15.90;10.45;;;6.90;99.90;;;;;;5033598;28;20049;-71
2022/04/30 06:20:57;;;;;;;18.15;11.45;;;7.00;99.90;;;;;;5033283;28;20049;-71
2022/04/30 06:23:23;;;;;;;18.85;10.88;;;7.00;99.90;;;;;;5028121;28;20469;-71
2022/04/30 06:25:49;;;;;;;16.40;10.55;;;7.10;99.90;;;;;;5029351;28;20037;-71
2022/04/30 06:28:15;;;;;;;17.23;11.60;;;7.20;99.90;;;;;;5025462;28;20122;-71
2022/04/30 06:30:42;;;;;;;20.38;11.38;;;7.20;99.90;;;;;;5030565;28;20077;-71
2022/04/30 06:33:08;;;;;;;19.10;11.27;;;7.30;99.90;;;;;;5033124;28;20053;-70
2022/04/30 06:35:35;;;;;;;15.98;10.55;;;7.40;99.90;;;;;;5024576;28;20060;-71
2022/04/30 06:38:00;;;;;;;12.88;10.30;;;7.50;99.90;;;;;;5029397;28;20045;-71
2022/04/30 06:40:26;;;;;;;16.05;10.57;;;7.60;99.90;;;;;;5023232;28;20088;-71
2022/04/30 06:42:52;;;;;;;15.30;10.77;;;7.70;99.90;;;;;;5026639;28;20098;-71
2022/04/30 06:45:17;;;;;;;17.98;10.50;;;7.70;99.90;;;;;;5031935;28;20049;-71
2022/04/30 06:47:43;;;;;;;16.75;10.63;;;7.80;99.90;;;;;;5031180;28;20088;-72
2022/04/30 06:50:10;;;;;;;17.13;9.90;;;7.90;99.90;;;;;;5031914;28;20052;-71
2022/04/30 06:57:06;;;;;;;14.68;9.93;;;8.00;99.90;;;;;;5023795;28;20051;-72
2022/04/30 06:58:06;;;;;;;14.77;9.73;;;8.20;99.90;;;;;;5020541;28;20049;-72
2022/04/30 07:03:16;;;;;;;14.63;9.50;;;8.50;99.90;;;;;;5030894;28;20133;-71
2022/04/30 07:05:42;;;;;;;18.70;9.70;;;8.60;99.90;;;;;;5029510;28;20131;-71
2022/04/30 07:08:08;;;;;;;13.20;8.90;;;8.60;99.90;;;;;;5031389;28;20049;-71
2022/04/30 07:10:33;;;;;;;14.10;8.40;;;8.70;99.90;;;;;;5030523;28;20052;-72
2022/04/30 07:12:59;;;;;;;12.85;8.18;;;8.80;99.90;;;;;;5034750;28;20043;-72
2022/04/30 07:15:25;;;;;;;14.25;8.38;;;8.80;99.90;;;;;;5036016;28;20038;-71
2022/04/30 07:17:50;;;;;;;11.98;7.25;;;8.90;99.90;;;;;;5029218;28;20124;-71
2022/04/30 07:20:16;;;;;;;12.13;7.20;;;9.00;99.90;;;;;;5029725;28;20041;-71
2022/04/30 07:22:42;;;;;;;11.32;6.80;;;9.10;99.90;;;;;;5032761;28;20113;-71
2022/04/30 07:25:08;;;;;;;14.57;7.03;;;9.20;99.90;;;;;;5031765;28;20060;-71
2022/04/30 07:27:33;;;;;;;14.85;7.43;;;9.30;99.90;;;;;;5040770;28;20056;-71
2022/04/30 07:29:59;;;;;;;9.75;7.10;;;9.40;99.90;;;;;;5033010;28;20033;-71
2022/04/30 07:32:25;;;;;;;10.25;6.90;;;9.40;99.90;;;;;;5032082;28;20164;-71
2022/04/30 07:34:50;;;;;;;13.40;7.55;;;9.50;99.90;;;;;;5032266;28;20041;-71
2022/04/30 07:37:17;;;;;;;13.15;7.28;;;9.60;99.90;;;;;;5051890;28;20040;-71
2022/04/30 07:39:42;;;;;;;12.38;7.05;;;9.70;99.90;;;;;;5046555;28;20046;-71
2022/04/30 07:42:08;;;;;;;12.07;6.50;;;9.80;99.90;;;;;;5027958;28;20044;-71
2022/04/30 07:44:34;;;;;;;10.25;6.57;;;10.00;99.90;;;;;;5031936;28;20111;-71
2022/04/30 07:46:59;;;;;;;10.88;5.75;;;10.10;99.90;;;;;;5033461;28;20061;-71
2022/04/30 07:49:25;;;;;;;9.45;5.63;;;10.30;99.90;;;;;;5031657;28;20041;-71
2022/04/30 07:51:55;;;;;;;11.30;6.22;;;10.50;99.90;;;;;;5036200;28;20041;-71
2022/04/30 07:54:22;;;;;;;9.77;5.63;;;10.60;99.90;;;;;;5031967;28;20041;-71
2022/04/30 07:56:55;;;;;;;13.40;5.47;;;10.80;99.90;;;;;;5027275;28;20030;-71
2022/04/30 07:59:21;;;;;;;10.23;5.28;;;10.90;99.90;;;;;;5028306;28;20041;-71
2022/04/30 08:01:47;;;;;;;10.45;6.00;;;11.00;99.90;;;;;;5029368;28;20079;-71
2022/04/30 08:04:13;;;;;;;9.05;4.57;;;11.20;99.90;;;;;;5034777;28;20073;-71
2022/04/30 08:06:39;;;;;;;8.93;4.32;;;11.40;99.90;;;;;;5029201;28;20080;-72
2022/04/30 08:09:05;;;;;;;10.75;5.53;;;11.60;99.90;;;;;;5029415;28;20056;-71
2022/04/30 08:11:31;;;;;;;10.18;5.18;;;11.80;99.90;;;;;;5031801;28;20049;-71
2022/04/30 08:13:57;;;;;;;8.48;4.53;;;12.00;99.90;;;;;;5025195;28;20034;-72
2022/04/30 08:16:23;;;;;;;8.25;4.97;;;12.10;99.90;;;;;;5025572;28;20038;-71
2022/04/30 08:18:48;;;;;;;9.75;4.50;;;12.40;99.90;;;;;;5030162;28;20124;-71
2022/04/30 08:21:14;;;;;;;10.70;4.60;;;12.60;99.90;;;;;;5030163;28;20128;-72
2022/04/30 08:23:40;;;;;;;6.63;4.70;;;12.90;99.90;;;;;;5014102;28;20048;-72
2022/04/30 08:26:05;;;;;;;7.35;5.03;;;13.00;99.90;;;;;;5035265;28;20051;-72
2022/04/30 08:28:31;;;;;;;11.32;4.38;;;13.20;99.90;;;;;;5030056;28;20037;-72
2022/04/30 08:30:58;;;;;;;8.00;4.97;;;13.30;99.90;;;;;;5031617;28;20055;-72
2022/04/30 08:33:24;;;;;;;8.38;4.75;;;13.40;99.90;;;;;;5029312;28;20041;-72
2022/04/30 08:35:50;;;;;;;8.52;4.63;;;13.40;99.90;;;;;;5031033;28;20045;-71
2022/04/30 08:38:16;;;;;;;8.25;5.07;;;13.40;99.90;;;;;;5019411;28;20042;-72
2022/04/30 08:40:43;;;;;;;11.77;5.05;;;13.30;99.90;;;;;;5027079;28;20098;-71
2022/04/30 08:43:11;;;;;;;15.15;5.50;;;13.20;99.90;;;;;;5023105;28;20078;-71
2022/04/30 08:45:39;;;;;;;9.60;5.32;;;13.20;99.90;;;;;;5031992;28;20473;-71
2022/04/30 08:48:07;;;;;;;9.23;5.03;;;13.30;99.90;;;;;;5030754;28;20045;-73
2022/04/30 08:50:34;;;;;;;10.45;5.50;;;13.30;99.90;;;;;;5021180;28;20052;-73
2022/04/30 08:53:00;;;;;;;8.68;5.38;;;13.20;99.90;;;;;;5031797;28;20088;-73
2022/04/30 08:55:26;;;;;;;12.30;6.43;;;13.20;99.90;;;;;;5030974;28;20096;-73
2022/04/30 08:57:52;;;;;;;9.65;5.78;;;13.10;99.90;;;;;;5031673;28;20037;-73
2022/04/30 09:00:18;;;;;;;12.00;5.90;;;13.10;99.90;;;;;;5031719;28;20056;-73
2022/04/30 09:02:58;;;;;;;10.43;6.10;;;13.00;99.90;;;;;;5031949;28;20033;-73
2022/04/30 09:05:32;;;;;;;11.07;5.53;;;13.00;99.90;;;;;;5030643;28;20041;-73
2022/04/30 09:07:59;;;;;;;8.65;6.07;;;13.00;99.90;;;;;;5030944;28;20087;-73
2022/04/30 09:10:31;;;;;;;9.27;5.68;;;13.00;99.90;;;;;;5029091;28;20057;-73
2022/04/30 09:13:14;;;;;;;11.87;5.57;;;12.80;99.90;;;;;;5029586;28;20056;-73
2022/04/30 09:15:44;;;;;;;13.57;6.03;;;12.80;99.90;;;;;;5030383;28;20099;-74
2022/04/30 09:18:11;;;;;;;11.73;6.30;;;12.80;99.90;;;;;;5030483;28;20087;-74
2022/04/30 09:20:49;;;;;;;11.30;6.03;;;12.80;99.90;;;;;;5031509;28;20052;-74
2022/04/30 09:23:31;;;;;;;11.75;6.07;;;12.70;99.90;;;;;;5030677;28;20085;-74
2022/04/30 09:25:59;;;;;;;12.43;6.90;;;12.80;99.90;;;;;;5030663;28;20569;-74
2022/04/30 09:28:27;;;;;;;12.60;6.05;;;12.90;99.90;;;;;;5031623;28;20041;-74
2022/04/30 09:31:06;;;;;;;10.95;6.18;;;13.00;99.90;;;;;;5030113;28;20099;-74
2022/04/30 09:33:33;;;;;;;11.43;6.03;;;13.00;99.90;;;;;;5030642;28;20045;-74
2022/04/30 09:38:51;;;;;;;10.05;5.13;;;13.20;99.90;;;;;;5033124;28;20491;-74
2022/04/30 09:41:25;;;;;;;15.50;5.88;;;13.40;99.90;;;;;;5032157;28;20037;-74
2022/04/30 09:44:05;;;;;;;12.25;5.63;;;13.60;99.90;;;;;;5032389;28;20491;-74
2022/04/30 09:46:35;;;;;;;13.18;5.47;;;13.70;99.90;;;;;;5032634;28;20565;-74
2022/04/30 09:54:32;;;;;;;14.07;5.50;;;14.00;99.90;;;;;;5033988;28;20071;-73
2022/04/30 09:56:59;;;;;;;8.93;5.75;;;14.00;99.90;;;;;;5034020;28;20041;-73
2022/04/30 09:59:27;;;;;;;9.38;4.97;;;14.10;99.90;;;;;;5035201;28;20442;-72
2022/04/30 10:01:53;;;;;;;10.02;5.25;;;14.10;99.90;;;;;;5037858;28;20404;-72
2022/04/30 10:04:19;;;;;;;7.90;4.40;;;14.20;99.90;;;;;;5037059;28;20398;-73
2022/04/30 10:06:50;;;;;;;7.97;3.90;;;14.30;99.90;;;;;;5036909;28;20041;-74
2022/04/30 10:09:21;;;;;;;7.45;3.38;;;14.50;99.00;;;;;;5020731;28;20045;-73
2022/04/30 10:11:56;;;;;;;6.53;3.50;;;14.60;96.90;;;;;;5037047;28;20045;-73
2022/04/30 10:14:24;;;;;;;8.60;3.83;;;14.80;94.30;;;;;;5020549;28;20045;-74
2022/04/30 10:19:36;;;;;;;7.85;3.60;;;14.70;93.20;;;;;;5036764;28;20051;-73
2022/04/30 10:22:16;;;;;;;6.55;3.85;;;14.70;89.70;;;;;;5036453;28;20041;-73
2022/04/30 10:24:47;;;;;;;8.95;4.25;;;14.80;89.30;;;;;;5036529;28;20124;-74
2022/04/30 10:27:13;;;;;;;8.20;4.20;;;14.90;90.30;;;;;;5036596;28;20038;-73
2022/04/30 10:29:59;;;;;;;7.50;4.10;;;15.00;89.20;;;;;;5037005;28;20044;-73
2022/04/30 10:32:25;;;;;;;8.82;4.30;;;14.90;90.80;;;;;;5036076;28;20042;-73
2022/04/30 10:34:52;;;;;;;6.65;3.88;;;15.00;91.00;;;;;;5019878;28;20049;-73
2022/04/30 10:37:36;;;;;;;6.93;3.70;;;15.00;89.90;;;;;;5020210;28;20037;-74
2022/04/30 10:40:06;;;;;;;8.18;3.53;;;15.00;83.80;;;;;;5035265;28;20045;-73
2022/04/30 10:42:41;;;;;;;7.22;3.53;;;14.90;84.70;;;;;;5036414;28;20045;-73
2022/04/30 10:45:11;;;;;;;5.00;3.40;;;14.90;78.40;;;;;;5018901;28;20087;-73
2022/04/30 10:47:52;;;;;;;6.00;3.50;;;14.80;77.90;;;;;;5035249;28;20171;-73
2022/04/30 10:50:18;;;;;;;8.45;3.67;;;14.60;81.30;;;;;;5036014;28;20045;-73
2022/04/30 10:52:48;;;;;;;5.68;3.40;;;14.70;82.70;;;;;;5035905;28;20030;-73
2022/04/30 10:55:15;;;;;;;6.03;3.30;;;14.70;82.70;;;;;;5037399;28;20033;-73
2022/04/30 10:57:42;;;;;;;6.95;4.18;;;14.70;72.40;;;;;;5002932;28;20120;-73
2022/04/30 11:00:08;;;;;;;7.35;3.40;;;14.60;75.80;;;;;;5018644;28;20044;-73
2022/04/30 11:02:34;;;;;;;8.13;4.18;;;14.40;79.20;;;;;;5035210;28;20067;-73
2022/04/30 11:05:00;;;;;;;8.38;4.53;;;14.40;84.00;;;;;;5035136;28;20049;-73
2022/04/30 11:07:28;;;;;;;6.75;4.22;;;14.30;88.60;;;;;;5002038;28;20051;-73
2022/04/30 11:09:56;;;;;;;6.43;4.45;;;14.30;90.50;;;;;;5018487;28;20091;-73
2022/04/30 11:12:27;;;;;;;9.25;3.90;;;14.30;94.00;;;;;;5035395;28;20038;-73
2022/04/30 11:14:54;;;;;;;4.85;3.67;;;14.30;94.60;;;;;;5036530;28;20042;-73
2022/04/30 11:17:20;;;;;;;7.10;4.03;;;14.30;94.70;;;;;;5037399;28;20045;-73
2022/04/30 11:19:46;;;;;;;6.70;4.03;;;14.30;93.00;;;;;;5018877;28;20049;-73
2022/04/30 11:22:14;;;;;;;8.25;4.30;;;14.30;90.80;;;;;;5036287;28;20042;-74
2022/04/30 11:24:41;;;;;;;13.27;3.95;;;14.20;92.80;;;;;;5001921;28;20406;-73
2022/04/30 11:27:08;;;;;;;8.13;4.13;;;14.10;92.70;;;;;;5035918;28;20041;-73
2022/04/30 11:29:36;;;;;;;6.22;3.70;;;14.10;94.90;;;;;;5034463;28;20051;-76
2022/04/30 11:32:03;;;;;;;6.45;3.78;;;13.90;93.70;;;;;;5034948;28;20372;-73
2022/04/30 11:34:29;;;;;;;9.15;4.05;;;13.80;92.80;;;;;;5035086;28;20045;-73
2022/04/30 11:37:00;;;;;;;16.38;3.97;;;13.70;94.10;;;;;;5034859;28;20044;-73
2022/04/30 11:39:27;;;;;;;8.60;3.50;;;13.60;95.90;;;;;;5034329;28;20097;-73
2022/04/30 11:41:55;;;;;;;5.88;3.50;;;13.60;96.70;;;;;;5034531;28;20046;-73
2022/04/30 11:44:26;;;;;;;7.38;3.45;;;13.60;94.60;;;;;;5034468;28;20049;-73
2022/04/30 11:46:53;;;;;;;7.05;3.80;;;13.50;94.20;;;;;;5034647;28;20046;-73
2022/04/30 11:49:24;;;;;;;6.35;3.50;;;13.40;94.80;;;;;;5034321;28;20038;-73
2022/04/30 11:51:55;;;;;;;8.33;4.10;;;13.50;92.00;;;;;;5035207;28;20136;-73
2022/04/30 11:54:23;;;;;;;6.13;3.83;;;13.30;95.30;;;;;;5035672;28;20272;-73
2022/04/30 11:56:49;;;;;;;5.15;3.55;;;13.30;97.10;;;;;;5033947;28;20044;-73
2022/04/30 11:59:15;;;;;;;7.88;3.53;;;13.20;97.00;;;;;;5033843;28;20038;-73
2022/04/30 12:01:44;;;;;;;7.40;4.03;;;13.10;98.40;;;;;;5033469;28;20128;-73
2022/04/30 12:04:14;;;;;;;5.47;3.47;;;13.10;97.70;;;;;;5033617;28;20042;-73
2022/04/30 12:06:44;;;;;;;11.13;4.25;;;13.10;97.50;;;;;;5034050;28;20075;-73
2022/04/30 12:09:18;;;;;;;9.13;4.25;;;13.00;99.60;;;;;;5017174;28;20049;-73
2022/04/30 12:11:49;;;;;;;8.32;4.30;;;13.00;99.70;;;;;;5016916;28;20041;-73
2022/04/30 12:14:15;;;;;;;6.80;4.40;;;13.00;99.90;;;;;;5016519;28;20105;-73
2022/04/30 12:16:43;;;;;;;8.23;4.45;;;12.90;99.90;;;;;;5032695;28;20037;-74
2022/04/30 12:25:10;;;;;;;11.80;4.03;;;12.90;98.70;;;;;;5026708;28;20052;-74
2022/04/30 12:27:37;;;;;;;6.18;4.20;;;12.90;98.60;;;;;;5001547;28;20041;-74
2022/04/30 12:30:14;;;;;;;10.68;4.40;;;12.90;98.70;;;;;;5027447;28;20046;-73
2022/04/30 12:33:00;;;;;;;10.10;4.57;;;12.80;99.90;;;;;;5026940;28;20041;-73
2022/04/30 12:35:31;;;;;;;11.18;4.50;;;12.70;99.90;;;;;;5026581;28;20041;-74
2022/04/30 12:38:08;;;;;;;10.40;4.93;;;12.70;99.90;;;;;;5018775;28;20053;-73
2022/04/30 12:40:38;;;;;;;7.97;4.90;;;12.70;99.90;;;;;;5028030;28;20052;-74
2022/04/30 12:43:05;;;;;;;7.78;5.88;;;12.70;99.90;;;;;;5025073;28;20060;-74
2022/04/30 12:45:31;;;;;;;10.40;5.53;;;12.70;99.90;;;;;;5025418;28;20053;-73
2022/04/30 12:47:57;;;;;;;8.50;5.38;;;12.60;99.90;;;;;;5028625;28;20446;-74
2022/04/30 12:50:24;;;;;;;7.68;5.90;;;12.70;99.90;;;;;;5019599;28;20038;-73
2022/04/30 12:52:51;;;;;;;10.85;5.70;;;12.70;99.90;;;;;;5014296;28;20488;-74
2022/04/30 12:55:18;;;;;;;9.50;6.13;;;12.70;99.90;;;;;;5014448;28;20048;-73
2022/04/30 12:57:45;;;;;;;13.00;5.50;;;12.70;99.90;;;;;;5030296;28;20033;-73
2022/04/30 13:00:12;;;;;;;7.55;5.80;;;12.70;99.90;;;;;;5023908;28;20041;-73
2022/04/30 13:02:39;;;;;;;13.23;6.35;;;12.80;99.90;;;;;;5027975;28;20041;-74
2022/04/30 13:05:16;;;;;;;9.50;5.80;;;12.80;99.90;;;;;;5030139;28;20071;-74
2022/04/30 13:07:43;;;;;;;11.30;6.35;;;12.90;99.90;;;;;;5025742;28;20053;-74
2022/04/30 13:15:40;;;;;;;10.15;5.38;;;12.90;99.90;;;;;;5020560;28;20534;-73
2022/04/30 13:18:07;;;;;;;8.02;4.80;;;13.00;99.90;;;;;;5021580;28;20124;-73
2022/04/30 13:20:34;;;;;;;6.68;4.38;;;13.00;99.90;;;;;;5022711;28;20554;-74
2022/04/30 13:23:01;;;;;;;6.22;4.10;;;13.00;99.90;;;;;;5029753;28;20057;-75
2022/04/30 13:25:28;;;;;;;7.38;4.00;;;13.10;99.90;;;;;;5028088;28;20132;-73
2022/04/30 13:27:55;;;;;;;8.00;4.22;;;13.10;99.90;;;;;;5010963;28;20042;-74
2022/04/30 13:30:22;;;;;;;5.28;3.70;;;13.20;99.90;;;;;;5010572;28;20041;-74
2022/04/30 13:32:48;;;;;;;6.28;3.92;;;13.20;99.90;;;;;;5007234;28;20484;-73
2022/04/30 13:35:15;;;;;;;6.10;3.70;;;13.10;99.80;;;;;;5030633;28;20052;-74
2022/04/30 13:37:41;;;;;;;5.97;3.90;;;13.20;97.10;;;;;;5028238;28;23331;-71